createdAt,value
2017-09-12T00:00:08.121Z,992.98
2017-09-12T00:00:48.670Z,992.98
2017-09-12T00:01:29.249Z,992.95
2017-09-12T00:02:09.828Z,992.97
2017-09-12T00:02:50.348Z,992.94
2017-09-12T00:03:30.898Z,992.95
2017-09-12T00:04:11.464Z,992.96
2017-09-12T00:04:52.043Z,992.99
2017-09-12T00:05:32.594Z,992.92
2017-09-12T00:06:13.154Z,992.95
2017-09-12T00:06:53.700Z,992.98
2017-09-12T00:07:34.267Z,992.98
2017-09-12T00:08:14.814Z,992.89
2017-09-12T00:08:55.328Z,992.93
2017-09-12T00:09:35.910Z,992.97
2017-09-12T00:10:16.486Z,992.94
2017-09-12T00:10:57.040Z,992.93
2017-09-12T00:11:37.595Z,992.91
2017-09-12T00:12:18.205Z,992.93
2017-09-12T00:12:58.809Z,992.97
2017-09-12T00:13:39.375Z,992.96
2017-09-12T00:14:19.931Z,992.94
2017-09-12T00:15:00.550Z,992.91
2017-09-12T00:15:41.129Z,992.94
2017-09-12T00:16:21.683Z,992.93
2017-09-12T00:17:02.259Z,992.99
2017-09-12T00:17:42.828Z,992.98
2017-09-12T00:18:23.372Z,993.02
2017-09-12T00:19:03.932Z,992.95
2017-09-12T00:19:44.527Z,993
2017-09-12T00:20:25.081Z,993.03
2017-09-12T00:21:05.646Z,993.01
2017-09-12T00:21:46.206Z,993.02
2017-09-12T00:22:26.760Z,993.07
2017-09-12T00:23:07.321Z,993.03
2017-09-12T00:23:47.906Z,992.99
2017-09-12T00:24:28.473Z,993.05
2017-09-12T00:25:09.047Z,993.03
2017-09-12T00:25:49.620Z,993.01
2017-09-12T00:26:30.174Z,992.98
2017-09-12T00:27:10.749Z,993.03
2017-09-12T00:27:51.307Z,993.02
2017-09-12T00:28:31.862Z,992.99
2017-09-12T00:29:12.419Z,993
2017-09-12T00:29:52.972Z,992.97
2017-09-12T00:30:33.513Z,992.98
2017-09-12T00:31:14.074Z,993
2017-09-12T00:31:54.638Z,992.97
2017-09-12T00:32:35.199Z,992.99
2017-09-12T00:33:15.760Z,992.93
2017-09-12T00:33:56.317Z,993
2017-09-12T00:34:36.881Z,992.96
2017-09-12T00:35:17.456Z,992.98
2017-09-12T00:35:58.023Z,992.97
2017-09-12T00:36:38.585Z,992.95
2017-09-12T00:37:19.142Z,993.03
2017-09-12T00:37:59.708Z,993
2017-09-12T00:38:40.274Z,992.98
2017-09-12T00:39:20.873Z,992.99
2017-09-12T00:40:01.438Z,993.01
2017-09-12T00:40:42.004Z,993.07
2017-09-12T00:41:22.579Z,993.06
2017-09-12T00:42:03.143Z,993.09
2017-09-12T00:42:43.712Z,993.1
2017-09-12T00:43:24.284Z,993.09
2017-09-12T00:44:04.837Z,992.99
2017-09-12T00:44:45.397Z,993.05
2017-09-12T00:45:25.959Z,993.07
2017-09-12T00:46:06.510Z,993.09
2017-09-12T00:46:47.074Z,993.04
2017-09-12T00:47:27.640Z,993.05
2017-09-12T00:48:08.196Z,993.03
2017-09-12T00:48:48.747Z,993.06
2017-09-12T00:49:29.301Z,993.05
2017-09-12T00:50:09.851Z,993.12
2017-09-12T00:50:50.405Z,993.11
2017-09-12T00:51:30.950Z,993.11
2017-09-12T00:52:11.547Z,993.07
2017-09-12T00:52:52.118Z,993.1
2017-09-12T00:53:32.689Z,993.14
2017-09-12T00:54:13.254Z,993.14
2017-09-12T00:54:53.814Z,993.17
2017-09-12T00:55:34.397Z,993.12
2017-09-12T00:56:14.958Z,993.19
2017-09-12T00:56:55.534Z,993.19
2017-09-12T00:57:36.090Z,993.17
2017-09-12T00:58:16.671Z,993.14
2017-09-12T00:58:57.226Z,993.13
2017-09-12T00:59:37.804Z,993.18
2017-09-12T01:00:18.383Z,993.21
2017-09-12T01:00:59.018Z,993.19
2017-09-12T01:01:39.594Z,993.1
2017-09-12T01:02:20.160Z,993.16
2017-09-12T01:03:00.718Z,993.13
2017-09-12T01:03:41.291Z,993.15
2017-09-12T01:04:21.834Z,993.1
2017-09-12T01:05:02.388Z,993.15
2017-09-12T01:05:42.917Z,993.16
2017-09-12T01:06:23.472Z,993.12
2017-09-12T01:07:04.036Z,993.2
2017-09-12T01:07:44.591Z,993.12
2017-09-12T01:08:25.143Z,993.11
2017-09-12T01:09:05.674Z,993.17
2017-09-12T01:09:46.220Z,993.19
2017-09-12T01:10:26.792Z,993.14
2017-09-12T01:11:07.354Z,993.14
2017-09-12T01:11:47.906Z,993.14
2017-09-12T01:12:28.472Z,993.16
2017-09-12T01:13:09.041Z,993.16
2017-09-12T01:13:49.589Z,993.16
2017-09-12T01:14:30.143Z,993.19
2017-09-12T01:15:10.719Z,993.18
2017-09-12T01:15:51.294Z,993.15
2017-09-12T01:16:31.858Z,993.15
2017-09-12T01:17:12.413Z,993.14
2017-09-12T01:17:52.986Z,993.14
2017-09-12T01:18:33.552Z,993.09
2017-09-12T01:19:14.105Z,993.12
2017-09-12T01:19:54.685Z,993.1
2017-09-12T01:20:35.240Z,993.07
2017-09-12T01:21:15.798Z,993.12
2017-09-12T01:21:56.370Z,993.08
2017-09-12T01:22:36.944Z,993.1
2017-09-12T01:23:17.506Z,993.14
2017-09-12T01:23:58.076Z,993.11
2017-09-12T01:24:38.659Z,993.13
2017-09-12T01:25:19.218Z,993.1
2017-09-12T01:25:59.779Z,993.15
2017-09-12T01:26:40.329Z,993.1
2017-09-12T01:27:20.902Z,993.12
2017-09-12T01:28:01.459Z,993.12
2017-09-12T01:28:42.009Z,993.11
2017-09-12T01:29:22.603Z,993.09
2017-09-12T01:30:03.173Z,993.11
2017-09-12T01:30:43.730Z,993.13
2017-09-12T01:31:24.300Z,993.11
2017-09-12T01:32:04.863Z,993.08
2017-09-12T01:32:45.425Z,993.13
2017-09-12T01:33:25.986Z,993.12
2017-09-12T01:34:06.542Z,993.09
2017-09-12T01:34:47.113Z,993.11
2017-09-12T01:35:27.680Z,993.1
2017-09-12T01:36:08.248Z,993.1
2017-09-12T01:36:48.819Z,993.05
2017-09-12T01:37:29.393Z,993.08
2017-09-12T01:38:09.946Z,993.08
2017-09-12T01:38:50.515Z,993.11
2017-09-12T01:39:31.081Z,993.06
2017-09-12T01:40:11.647Z,993.09
2017-09-12T01:40:52.211Z,993.11
2017-09-12T01:41:32.776Z,993.06
2017-09-12T01:42:13.340Z,993.02
2017-09-12T01:42:53.899Z,993.04
2017-09-12T01:43:34.479Z,993.1
2017-09-12T01:44:15.051Z,993.05
2017-09-12T01:44:55.621Z,993.09
2017-09-12T01:45:36.195Z,993.07
2017-09-12T01:46:16.727Z,993.11
2017-09-12T01:46:57.304Z,993.09
2017-09-12T01:47:37.871Z,993.1
2017-09-12T01:48:18.445Z,993.06
2017-09-12T01:48:59.014Z,993.08
2017-09-12T01:49:39.570Z,993.05
2017-09-12T01:50:20.126Z,993.05
2017-09-12T01:51:00.712Z,992.99
2017-09-12T01:51:41.297Z,993.01
2017-09-12T01:52:21.853Z,993.01
2017-09-12T01:53:02.421Z,993.02
2017-09-12T01:53:42.983Z,993.03
2017-09-12T01:54:23.563Z,993
2017-09-12T01:55:04.118Z,993
2017-09-12T01:55:44.679Z,992.99
2017-09-12T01:56:25.249Z,992.97
2017-09-12T01:57:05.812Z,992.98
2017-09-12T01:57:46.376Z,993.03
2017-09-12T01:58:26.934Z,992.99
2017-09-12T01:59:07.502Z,993.03
2017-09-12T01:59:48.068Z,992.99
2017-09-12T02:00:28.626Z,993.06
2017-09-12T02:01:09.188Z,993.01
2017-09-12T02:01:49.755Z,993.03
2017-09-12T02:02:30.326Z,993.05
2017-09-12T02:03:10.889Z,993.04
2017-09-12T02:03:51.457Z,993.05
2017-09-12T02:04:32.047Z,993.04
2017-09-12T02:05:12.612Z,993.02
2017-09-12T02:05:53.179Z,993.05
2017-09-12T02:06:33.772Z,993.09
2017-09-12T02:07:14.329Z,993.08
2017-09-12T02:07:54.901Z,993.07
2017-09-12T02:08:35.465Z,993.05
2017-09-12T02:09:16.037Z,993.06
2017-09-12T02:09:56.605Z,993.03
2017-09-12T02:10:37.164Z,993.08
2017-09-12T02:11:17.715Z,993.07
2017-09-12T02:11:58.289Z,993.09
2017-09-12T02:12:38.874Z,993.06
2017-09-12T02:13:19.450Z,993.11
2017-09-12T02:14:00.007Z,993.01
2017-09-12T02:14:40.566Z,993.03
2017-09-12T02:15:21.138Z,993
2017-09-12T02:16:01.671Z,993.04
2017-09-12T09:01:11.871Z,996.86
2017-09-12T09:01:52.656Z,996.9
2017-09-12T09:02:33.170Z,996.88
2017-09-12T09:03:13.772Z,996.86
2017-09-12T09:03:54.363Z,996.86
2017-09-12T09:04:34.880Z,996.86
2017-09-12T09:05:15.475Z,996.82
2017-09-12T09:05:56.110Z,996.9
2017-09-12T09:06:36.785Z,996.87
2017-09-12T09:07:17.372Z,996.91
2017-09-12T09:07:59.429Z,996.9
2017-09-12T09:08:40.274Z,996.9
2017-09-12T09:09:23.181Z,996.89
2017-09-12T09:10:03.836Z,996.87
2017-09-12T09:10:44.528Z,996.88
2017-09-12T09:11:27.865Z,996.89
2017-09-12T09:12:08.457Z,996.86
2017-09-12T09:12:49.216Z,996.82
2017-09-12T09:13:29.863Z,996.84
2017-09-12T09:14:10.515Z,996.84
2017-09-12T09:14:54.664Z,996.86
2017-09-12T09:15:35.928Z,996.83
2017-09-12T09:16:16.493Z,996.85
2017-09-12T09:16:57.142Z,996.82
2017-09-12T09:17:37.695Z,996.89
2017-09-12T09:18:18.505Z,996.89
2017-09-12T09:18:59.187Z,996.89
2017-09-12T09:19:39.723Z,996.96
2017-09-12T09:20:20.278Z,996.91
2017-09-12T09:22:50.103Z,996.83
2017-09-12T09:23:30.714Z,996.85
2017-09-12T09:24:11.258Z,996.87
2017-09-12T09:24:51.869Z,996.88
2017-09-12T09:25:32.429Z,996.91
2017-09-12T09:26:13.142Z,996.89
2017-09-12T09:26:53.754Z,996.88
2017-09-12T09:27:34.645Z,996.89
2017-09-12T09:28:17.643Z,996.81
2017-09-12T09:28:58.159Z,996.78
2017-09-12T09:29:39.194Z,996.81
2017-09-12T09:30:19.746Z,996.82
2017-09-12T09:31:00.807Z,996.79
2017-09-12T09:31:41.173Z,996.84
2017-09-12T09:32:21.887Z,996.84
2017-09-12T09:33:02.444Z,996.81
2017-09-12T09:33:43.006Z,996.78
2017-09-12T09:34:23.858Z,996.85
2017-09-12T09:35:04.584Z,996.77
2017-09-12T09:35:45.021Z,996.85
2017-09-12T09:36:25.731Z,996.79
2017-09-12T09:37:06.265Z,996.8
2017-09-12T09:37:46.792Z,996.86
2017-09-12T09:38:27.409Z,996.79
2017-09-12T09:39:07.900Z,996.81
2017-09-12T09:39:48.501Z,996.82
2017-09-12T09:40:29.136Z,996.76
2017-09-12T09:41:09.783Z,996.84
2017-09-12T09:41:50.430Z,996.78
2017-09-12T09:42:30.987Z,996.78
2017-09-12T09:43:11.584Z,996.86
2017-09-12T09:43:52.185Z,996.86
2017-09-12T09:44:32.897Z,996.8
2017-09-12T09:45:13.421Z,996.91
2017-09-12T09:45:54.071Z,996.85
2017-09-12T09:46:34.541Z,996.77
2017-09-12T09:47:15.091Z,996.78
2017-09-12T09:47:55.752Z,996.82
2017-09-12T09:48:36.636Z,996.78
2017-09-12T09:49:17.221Z,996.81
2017-09-12T09:49:57.816Z,996.81
2017-09-12T09:50:38.377Z,996.82
2017-09-12T09:51:18.938Z,996.82
2017-09-12T09:51:59.489Z,996.82
2017-09-12T09:52:39.987Z,996.82
2017-09-12T09:53:20.704Z,996.82
2017-09-12T09:54:01.303Z,996.85
2017-09-12T09:54:41.951Z,996.79
2017-09-12T09:55:22.357Z,996.8
2017-09-12T09:56:03.196Z,996.78
2017-09-12T09:56:44.027Z,996.85
2017-09-12T09:57:24.562Z,996.74
2017-09-12T09:58:05.260Z,996.78
2017-09-12T09:58:45.817Z,996.78
2017-09-12T09:59:26.438Z,996.8
2017-09-12T10:00:07.030Z,996.78
2017-09-12T10:00:47.656Z,996.81
2017-09-12T10:01:28.243Z,996.86
2017-09-12T10:02:08.747Z,996.92
2017-09-12T10:02:49.597Z,996.76
2017-09-12T10:03:30.353Z,996.75
2017-09-12T10:04:10.953Z,996.94
2017-09-12T10:04:51.477Z,996.92
2017-09-12T10:05:32.009Z,996.96
2017-09-12T10:06:12.588Z,997.06
2017-09-12T10:06:53.150Z,997.06
2017-09-12T10:07:33.682Z,997.13
2017-09-12T10:08:14.206Z,997.13
2017-09-12T10:08:54.741Z,997.01
2017-09-12T10:09:35.296Z,997.12
2017-09-12T10:10:16.006Z,997.08
2017-09-12T10:10:56.685Z,997.13
2017-09-12T10:11:37.313Z,997.15
2017-09-12T10:12:17.852Z,997.22
2017-09-12T10:12:58.400Z,997.14
2017-09-12T10:13:38.994Z,997.16
2017-09-12T10:14:19.577Z,997.18
2017-09-12T10:15:00.160Z,997.13
2017-09-12T10:15:40.698Z,997.15
2017-09-12T10:16:21.281Z,997.12
2017-09-12T10:17:01.804Z,997.14
2017-09-12T10:17:42.345Z,997.13
2017-09-12T10:18:22.926Z,997.2
2017-09-12T10:19:03.429Z,997.18
2017-09-12T10:19:43.973Z,997.14
2017-09-12T10:20:24.484Z,997.1
2017-09-12T10:21:05.060Z,997.16
2017-09-12T10:21:45.768Z,997.12
2017-09-12T10:22:26.279Z,997.1
2017-09-12T10:23:06.997Z,997.1
2017-09-12T10:23:47.531Z,997.12
2017-09-12T10:24:28.062Z,997.13
2017-09-12T10:25:08.611Z,997.11
2017-09-12T10:25:49.123Z,997.12
2017-09-12T10:26:29.639Z,997.05
2017-09-12T10:27:10.157Z,997.08
2017-09-12T10:27:50.715Z,997.02
2017-09-12T10:28:31.274Z,997.05
2017-09-12T10:29:11.810Z,997.08
2017-09-12T10:29:52.327Z,997.07
2017-09-12T10:30:32.901Z,997.07
2017-09-12T10:31:13.428Z,997.06
2017-09-12T10:31:53.988Z,997.04
2017-09-12T10:32:34.643Z,997.01
2017-09-12T10:33:15.228Z,997.05
2017-09-12T10:33:56.033Z,996.97
2017-09-12T10:34:36.899Z,997.05
2017-09-12T10:35:17.212Z,997.12
2017-09-12T10:35:57.739Z,996.94
2017-09-12T10:36:38.331Z,997.05
2017-09-12T10:37:18.930Z,997.05
2017-09-12T10:37:59.612Z,996.96
2017-09-12T10:38:40.305Z,996.96
2017-09-12T10:39:20.871Z,997.07
2017-09-12T10:40:01.376Z,996.97
2017-09-12T10:40:41.898Z,997.04
2017-09-12T10:41:22.444Z,997
2017-09-12T10:42:03.267Z,996.99
2017-09-12T10:42:43.744Z,997.03
2017-09-12T10:43:24.300Z,997.06
2017-09-12T10:44:04.853Z,997.06
2017-09-12T10:44:45.433Z,996.98
2017-09-12T10:45:25.938Z,997.1
2017-09-12T10:46:06.499Z,997.1
2017-09-12T10:46:47.067Z,997.03
2017-09-12T10:47:27.589Z,997.06
2017-09-12T10:48:08.099Z,997.09
2017-09-12T10:48:48.685Z,997.09
2017-09-12T10:49:29.245Z,997.06
2017-09-12T10:50:09.850Z,997.05
2017-09-12T10:50:50.538Z,997.04
2017-09-12T10:51:31.025Z,997.09
2017-09-12T10:52:11.824Z,997.1
2017-09-12T10:52:52.612Z,997.12
2017-09-12T10:53:33.576Z,997.04
2017-09-12T10:54:14.039Z,996.99
2017-09-12T10:54:54.661Z,997.06
2017-09-12T10:55:35.514Z,997
2017-09-12T10:56:16.109Z,997.01
2017-09-12T10:56:56.728Z,997.05
2017-09-12T10:57:37.289Z,997.06
2017-09-12T10:58:17.876Z,996.96
2017-09-12T10:58:58.753Z,997.05
2017-09-12T10:59:39.937Z,997.08
2017-09-12T11:00:20.479Z,997.08
2017-09-12T11:01:01.013Z,997.09
2017-09-12T11:01:41.614Z,997.08
2017-09-12T11:02:22.576Z,997.13
2017-09-12T11:03:03.102Z,997.13
2017-09-12T11:03:43.739Z,997.12
2017-09-12T11:04:26.438Z,997.08
2017-09-12T11:05:07.148Z,997.16
2017-09-12T11:05:47.731Z,997.11
2017-09-12T11:06:28.199Z,997.09
2017-09-12T11:07:10.348Z,997.09
2017-09-12T11:49:20.452Z,997.76
2017-09-12T11:50:01.633Z,997.78
2017-09-12T11:50:42.217Z,997.79
2017-09-12T11:51:22.832Z,997.77
2017-09-12T11:52:03.477Z,997.77
2017-09-12T11:52:43.899Z,997.8
2017-09-12T11:53:24.765Z,997.8
2017-09-12T12:13:44.090Z,997.91
2017-09-12T12:14:26.239Z,997.92
2017-09-12T12:15:06.755Z,997.89
2017-09-12T12:15:47.318Z,997.93
2017-09-12T12:16:27.958Z,997.91
2017-09-12T12:17:08.411Z,997.98
2017-09-12T12:19:28.710Z,997.93
2017-09-12T12:20:09.275Z,997.95
2017-09-12T12:20:49.838Z,997.93
2017-09-12T12:21:30.396Z,997.89
2017-09-12T12:22:10.972Z,997.91
2017-09-12T12:22:51.526Z,997.88
2017-09-12T12:23:32.078Z,997.84
2017-09-12T12:25:03.405Z,997.9
2017-09-12T12:25:44.177Z,997.88
2017-09-12T12:26:24.589Z,997.91
2017-09-12T12:27:05.132Z,997.92
2017-09-12T12:27:45.859Z,997.92
2017-09-12T12:28:26.415Z,997.91
2017-09-12T12:29:06.973Z,997.91
2017-09-12T12:29:48.388Z,997.91
2017-09-12T12:30:28.941Z,997.96
2017-09-12T12:31:09.491Z,997.96
2017-09-12T12:31:50.055Z,997.94
2017-09-12T12:32:30.585Z,997.94
2017-09-12T12:33:11.143Z,997.97
2017-09-12T12:33:51.804Z,997.92
2017-09-12T12:34:32.348Z,997.97
2017-09-12T12:35:13.128Z,997.93
2017-09-12T12:35:53.721Z,997.94
2017-09-12T12:36:34.312Z,997.93
2017-09-12T12:37:14.827Z,997.92
2017-09-12T12:37:55.402Z,997.91
2017-09-12T12:38:35.963Z,997.95
2017-09-12T12:39:16.524Z,997.96
2017-09-12T12:39:57.093Z,997.98
2017-09-12T12:40:37.686Z,997.94
2017-09-12T12:41:18.174Z,998
2017-09-12T12:41:58.738Z,997.97
2017-09-12T12:42:39.332Z,998.05
2017-09-12T12:43:19.869Z,998.08
2017-09-12T12:44:00.449Z,998.01
2017-09-12T12:44:41.023Z,998.11
2017-09-12T12:45:21.582Z,998.04
2017-09-12T12:46:02.141Z,998.05
2017-09-12T12:46:42.670Z,998.07
2017-09-12T12:47:23.244Z,998.03
2017-09-12T12:48:03.804Z,998.05
2017-09-12T12:48:44.433Z,998.07
2017-09-12T12:49:24.924Z,998.03
2017-09-12T12:50:05.466Z,998.03
2017-09-12T12:50:46.019Z,998.08
2017-09-12T12:51:26.589Z,998.11
2017-09-12T12:52:07.166Z,998.03
2017-09-12T12:52:47.718Z,998.08
2017-09-12T12:53:28.294Z,998.09
2017-09-12T12:54:08.888Z,998.01
2017-09-12T12:54:49.428Z,998.05
2017-09-12T12:55:29.994Z,998.06
2017-09-12T12:56:10.533Z,998.06
2017-09-12T12:56:51.099Z,998.06
2017-09-12T12:57:31.701Z,998.11
2017-09-12T12:58:12.270Z,998.1
2017-09-12T12:58:52.813Z,998.11
2017-09-12T12:59:33.377Z,998.11
2017-09-12T13:00:14.022Z,998.1
2017-09-12T13:00:54.649Z,998.12
2017-09-12T13:01:35.172Z,998.13
2017-09-12T13:02:15.669Z,998.13
2017-09-12T13:02:56.223Z,998.16
2017-09-12T13:03:36.772Z,998.13
2017-09-12T13:04:17.337Z,998.14
2017-09-12T13:04:58.279Z,998.11
2017-09-12T13:05:38.814Z,998.18
2017-09-12T13:06:19.418Z,998.18
2017-09-12T13:06:59.904Z,998.16
2017-09-12T13:07:40.464Z,998.15
2017-09-12T13:08:21.021Z,998.14
2017-09-12T13:09:01.584Z,998.18
2017-09-12T13:09:42.158Z,998.14
2017-09-12T13:10:22.711Z,998.17
2017-09-12T13:11:03.246Z,998.21
2017-09-12T13:11:43.800Z,998.14
2017-09-12T13:12:24.368Z,998.21
2017-09-12T13:13:04.905Z,998.13
2017-09-12T13:13:45.539Z,998.14
2017-09-12T13:14:26.103Z,998.14
2017-09-12T13:15:06.639Z,998.13
2017-09-12T13:15:47.287Z,998.15
2017-09-12T13:16:27.880Z,998.13
2017-09-12T13:17:08.449Z,998.15
2017-09-12T13:17:49.000Z,998.16
2017-09-12T13:18:29.561Z,998.17
2017-09-12T13:19:10.088Z,998.1
2017-09-12T13:19:50.678Z,998.09
2017-09-12T13:20:31.185Z,998.13
2017-09-12T13:21:11.767Z,998.11
2017-09-12T13:21:52.346Z,998.1
2017-09-12T13:22:32.917Z,998.1
2017-09-12T13:23:13.485Z,998.12
2017-09-12T13:23:54.015Z,998.15
2017-09-12T13:24:34.570Z,998.1
2017-09-12T13:25:15.110Z,998.09
2017-09-12T13:25:55.675Z,998.14
2017-09-12T13:26:36.327Z,998.05
2017-09-12T13:27:16.893Z,998.08
2017-09-12T13:27:57.611Z,998.09
2017-09-12T13:28:38.166Z,998.12
2017-09-12T13:29:18.802Z,998.08
2017-09-12T13:29:59.380Z,998.07
2017-09-12T13:30:39.915Z,998.07
2017-09-12T13:31:20.465Z,998.07
2017-09-12T13:32:01.002Z,998.11
2017-09-12T13:32:41.643Z,998.1
2017-09-12T13:33:22.173Z,998.11
2017-09-12T13:34:02.723Z,998.17
2017-09-12T13:34:43.273Z,998.17
2017-09-12T13:35:23.824Z,998.12
2017-09-12T13:36:04.413Z,998.1
2017-09-12T13:36:44.925Z,998.16
2017-09-12T13:37:25.500Z,998.16
2017-09-12T13:38:06.061Z,998.25
2017-09-12T13:38:46.608Z,998.31
2017-09-12T13:39:27.157Z,998.43
2017-09-12T13:40:07.786Z,998.57
2017-09-12T13:40:48.341Z,998.57
2017-09-12T13:41:28.854Z,998.64
2017-09-12T13:42:09.490Z,998.66
2017-09-12T13:42:50.056Z,998.65
2017-09-12T13:43:30.600Z,998.63
2017-09-12T13:44:11.159Z,998.68
2017-09-12T13:44:51.720Z,998.63
2017-09-12T13:45:32.266Z,998.61
2017-09-12T13:46:12.805Z,998.63
2017-09-12T13:46:53.360Z,998.6
2017-09-12T13:47:33.906Z,998.62
2017-09-12T13:48:14.454Z,998.61
2017-09-12T13:48:54.995Z,998.54
2017-09-12T13:49:35.551Z,998.55
2017-09-12T13:50:16.098Z,998.48
2017-09-12T13:50:56.672Z,998.49
2017-09-12T13:51:37.201Z,998.5
2017-09-12T13:52:17.776Z,998.5
2017-09-12T13:52:58.305Z,998.51
2017-09-12T13:53:38.864Z,998.51
2017-09-12T13:54:19.407Z,998.48
2017-09-12T13:54:59.969Z,998.47
2017-09-12T13:55:40.580Z,998.48
2017-09-12T13:56:21.181Z,998.46
2017-09-12T13:57:01.712Z,998.47
2017-09-12T13:57:42.252Z,998.5
2017-09-12T13:58:22.809Z,998.51
2017-09-12T13:59:03.319Z,998.52
2017-09-12T13:59:43.863Z,998.52
2017-09-12T14:00:24.394Z,998.53
2017-09-12T14:01:04.929Z,998.56
2017-09-12T14:01:45.499Z,998.57
2017-09-12T14:02:26.022Z,998.59
2017-09-12T14:03:06.601Z,998.62
2017-09-12T14:03:47.138Z,998.67
2017-09-12T14:04:27.748Z,998.67
2017-09-12T14:05:08.325Z,998.71
2017-09-12T14:05:48.906Z,998.71
2017-09-12T14:06:29.463Z,998.71
2017-09-12T14:07:10.051Z,998.67
2017-09-12T14:07:50.595Z,998.7
2017-09-12T14:08:31.159Z,998.67
2017-09-12T14:09:11.752Z,998.7
2017-09-12T14:09:52.290Z,998.7
2017-09-12T14:10:32.854Z,998.67
2017-09-12T14:11:13.379Z,998.73
2017-09-12T14:11:53.957Z,998.77
2017-09-12T14:12:34.459Z,998.73
2017-09-12T14:13:15.011Z,998.73
2017-09-12T14:13:55.611Z,998.79
2017-09-12T14:14:36.139Z,998.78
2017-09-12T14:15:16.709Z,998.81
2017-09-12T14:15:57.344Z,998.73
2017-09-12T14:16:37.875Z,998.75
2017-09-12T14:17:18.468Z,998.76
2017-09-12T14:17:59.921Z,998.71
2017-09-12T14:18:40.560Z,998.73
2017-09-12T14:19:21.134Z,998.74
2017-09-12T14:20:01.701Z,998.75
2017-09-12T14:20:42.307Z,998.77
2017-09-12T14:21:22.844Z,998.77
2017-09-12T14:22:03.376Z,998.71
2017-09-12T14:22:43.928Z,998.74
2017-09-12T14:23:24.476Z,998.78
2017-09-12T14:24:05.012Z,998.78
2017-09-12T14:24:45.582Z,998.79
2017-09-12T14:25:26.100Z,998.79
2017-09-12T14:26:06.672Z,998.77
2017-09-12T14:26:47.194Z,998.72
2017-09-12T14:27:27.954Z,998.79
2017-09-12T14:28:08.908Z,998.74
2017-09-12T14:28:49.485Z,998.77
2017-09-12T14:29:30.026Z,998.75
2017-09-12T14:30:10.602Z,998.76
2017-09-12T14:30:51.144Z,998.77
2017-09-12T14:31:31.699Z,998.75
2017-09-12T14:32:12.244Z,998.8
2017-09-12T14:32:52.846Z,998.84
2017-09-12T14:33:33.422Z,998.75
2017-09-12T14:34:13.970Z,998.78
2017-09-12T14:34:54.523Z,998.78
2017-09-12T14:35:35.094Z,998.86
2017-09-12T14:36:15.674Z,998.82
2017-09-12T14:36:56.222Z,998.86
2017-09-12T14:37:36.948Z,998.85
2017-09-12T14:38:17.364Z,998.89
2017-09-12T14:38:57.941Z,998.88
2017-09-12T14:39:38.497Z,998.89
2017-09-12T14:40:19.037Z,998.86
2017-09-12T14:40:59.587Z,998.86
2017-09-12T14:41:40.148Z,998.85
2017-09-12T14:42:20.750Z,998.83
2017-09-12T14:43:01.296Z,998.87
2017-09-12T14:43:41.861Z,998.86
2017-09-12T14:44:23.210Z,998.85
2017-09-12T14:45:02.965Z,998.87
2017-09-12T14:45:43.546Z,998.87
2017-09-12T14:46:24.093Z,998.87
2017-09-12T14:47:04.706Z,998.89
2017-09-12T14:47:45.287Z,998.91
2017-09-12T14:48:25.891Z,998.9
2017-09-12T14:49:06.443Z,998.93
2017-09-12T14:49:47.051Z,999
2017-09-12T14:50:27.616Z,998.88
2017-09-12T14:51:08.319Z,998.91
2017-09-12T14:51:48.908Z,998.96
2017-09-12T14:52:29.481Z,998.92
2017-09-12T14:53:10.086Z,998.99
2017-09-12T14:53:50.620Z,998.93
2017-09-12T14:54:31.163Z,998.92
2017-09-12T14:55:11.780Z,998.95
2017-09-12T14:55:52.323Z,998.95
2017-09-12T14:56:32.893Z,998.95
2017-09-12T14:57:14.088Z,998.93
2017-09-12T14:57:54.892Z,998.94
2017-09-12T14:58:35.257Z,998.96
2017-09-12T14:59:15.814Z,998.93
2017-09-12T14:59:56.451Z,999.01
2017-09-12T15:00:37.052Z,998.97
2017-09-12T15:01:17.563Z,998.94
2017-09-12T15:01:58.122Z,998.97
2017-09-12T15:02:38.684Z,998.94
2017-09-12T15:03:19.812Z,998.98
2017-09-12T15:04:00.345Z,998.94
2017-09-12T15:04:40.861Z,999
2017-09-12T15:05:21.384Z,999
2017-09-12T15:06:01.982Z,999.02
2017-09-12T15:06:42.501Z,999.09
2017-09-12T15:07:23.080Z,999.1
2017-09-12T15:08:04.456Z,999.08
2017-09-12T15:08:45.021Z,999.07
2017-09-12T15:09:25.689Z,999.07
2017-09-12T15:10:06.259Z,999.09
2017-09-12T15:10:46.884Z,999.08
2017-09-12T15:11:27.479Z,999.06
2017-09-12T15:12:08.037Z,999.06
2017-09-12T15:12:48.600Z,999.06
2017-09-12T15:13:29.280Z,999.05
2017-09-12T15:14:09.815Z,999.08
2017-09-12T15:14:50.326Z,999.02
2017-09-12T15:15:30.918Z,999.07
2017-09-12T15:16:11.444Z,999.07
2017-09-12T15:16:52.010Z,999.03
2017-09-12T15:17:32.606Z,999.12
2017-09-12T15:18:13.342Z,999.12
2017-09-12T15:18:53.865Z,999.15
2017-09-12T15:19:34.425Z,999.14
2017-09-12T15:20:14.997Z,999.15
2017-09-12T15:20:55.536Z,999.22
2017-09-12T15:21:36.141Z,999.26
2017-09-12T15:22:16.690Z,999.25
2017-09-12T15:22:57.245Z,999.29
2017-09-12T15:23:37.850Z,999.28
2017-09-12T15:24:18.362Z,999.26
2017-09-12T15:24:59.017Z,999.23
2017-09-12T15:25:39.653Z,999.13
2017-09-12T15:26:20.220Z,999.15
2017-09-12T15:27:00.791Z,999.12
2017-09-12T15:27:41.321Z,999.12
2017-09-12T15:28:21.944Z,999.12
2017-09-12T15:29:02.434Z,999.08
2017-09-12T15:29:43.025Z,999.09
2017-09-12T15:30:24.107Z,999.13
2017-09-12T15:31:04.670Z,999.08
2017-09-12T15:31:46.203Z,999.11
2017-09-12T15:32:26.938Z,999.14
2017-09-12T15:33:07.396Z,999.15
2017-09-12T15:33:50.021Z,999.17
2017-09-12T15:34:30.586Z,999.18
2017-09-12T15:35:11.227Z,999.16
2017-09-12T15:35:51.714Z,999.16
2017-09-12T15:36:32.216Z,999.16
2017-09-12T15:37:12.835Z,999.2
2017-09-12T15:37:53.358Z,999.22
2017-09-12T15:38:34.019Z,999.25
2017-09-12T15:39:14.564Z,999.34
2017-09-12T15:39:55.158Z,999.32
2017-09-12T15:40:35.774Z,999.32
2017-09-12T15:41:16.485Z,999.33
2017-09-12T15:41:57.000Z,999.34
2017-09-12T15:42:37.568Z,999.36
2017-09-12T15:43:18.227Z,999.38
2017-09-12T15:43:58.680Z,999.41
2017-09-12T15:44:39.310Z,999.44
2017-09-12T15:45:20.148Z,999.42
2017-09-12T15:46:00.669Z,999.45
2017-09-12T15:46:41.221Z,999.42
2017-09-12T15:47:21.748Z,999.43
2017-09-12T15:48:02.374Z,999.45
2017-09-12T15:48:42.939Z,999.42
2017-09-12T15:49:23.494Z,999.47
2017-09-12T15:50:04.184Z,999.45
2017-09-12T15:50:44.725Z,999.48
2017-09-12T15:51:25.278Z,999.48
2017-09-12T15:52:05.845Z,999.48
2017-09-12T15:52:46.383Z,999.52
2017-09-12T15:53:26.964Z,999.54
2017-09-12T15:54:07.435Z,999.53
2017-09-12T15:54:48.011Z,999.55
2017-09-12T15:55:28.544Z,999.54
2017-09-12T15:56:09.086Z,999.57
2017-09-12T15:56:49.691Z,999.52
2017-09-12T15:57:30.235Z,999.57
2017-09-12T15:58:10.886Z,999.61
2017-09-12T15:58:51.377Z,999.57
2017-09-12T15:59:31.939Z,999.57
2017-09-12T16:00:12.507Z,999.53
2017-09-12T16:00:52.981Z,999.63
2017-09-12T16:01:33.555Z,999.54
2017-09-12T16:02:14.117Z,999.59
2017-09-12T16:02:54.661Z,999.57
2017-09-12T16:03:35.183Z,999.56
2017-09-12T16:04:15.772Z,999.59
2017-09-12T16:04:56.745Z,999.58
2017-09-12T16:05:36.847Z,999.6
2017-09-12T16:06:17.424Z,999.66
2017-09-12T16:06:58.867Z,999.59
2017-09-12T16:07:39.376Z,999.6
2017-09-12T16:08:19.914Z,999.62
2017-09-12T16:09:00.459Z,999.64
2017-09-12T16:09:41.003Z,999.61
2017-09-12T16:10:21.559Z,999.66
2017-09-12T16:11:02.949Z,999.62
2017-09-12T16:11:43.634Z,999.68
2017-09-12T16:12:24.195Z,999.64
2017-09-12T16:13:04.725Z,999.69
2017-09-12T16:13:45.319Z,999.69
2017-09-12T16:14:25.873Z,999.68
2017-09-12T16:15:06.404Z,999.72
2017-09-12T16:15:46.961Z,999.71
2017-09-12T16:16:27.502Z,999.75
2017-09-12T16:17:07.990Z,999.73
2017-09-12T16:17:48.544Z,999.73
2017-09-12T16:18:29.276Z,999.73